createdAt,value
2023-05-14T00:01:07.852Z,11.24
2023-05-14T00:03:37.885Z,11.23
2023-05-14T00:06:07.162Z,11.25
2023-05-14T00:08:36.649Z,11.27
2023-05-14T00:11:07.610Z,11.29
2023-05-14T00:13:36.701Z,11.28
2023-05-14T00:16:07.161Z,11.27
2023-05-14T00:18:35.982Z,11.24
2023-05-14T00:21:05.687Z,11.20
2023-05-14T00:23:36.172Z,11.19
2023-05-14T00:26:05.466Z,11.19
2023-05-14T00:28:36.365Z,11.17
2023-05-14T00:31:05.496Z,11.13
2023-05-14T00:33:34.311Z,11.09
2023-05-14T00:36:04.946Z,11.08
2023-05-14T00:38:34.180Z,11.11
2023-05-14T00:41:04.924Z,11.14
2023-05-14T00:43:33.678Z,11.13
2023-05-14T00:46:02.760Z,11.07
2023-05-14T00:48:33.130Z,11.03
2023-05-14T00:51:01.953Z,10.97
2023-05-14T00:53:30.677Z,10.90
2023-05-14T00:56:00.014Z,10.85
2023-05-14T00:58:30.494Z,10.82
2023-05-14T01:00:59.437Z,10.82
2023-05-14T01:03:28.535Z,10.80
2023-05-14T01:06:01.526Z,10.80
2023-05-14T01:08:48.549Z,10.78
2023-05-14T01:11:32.721Z,10.74
2023-05-14T01:14:08.084Z,10.73
2023-05-14T01:16:37.752Z,10.70
2023-05-14T01:19:12.615Z,10.69
2023-05-14T01:21:43.846Z,10.65
2023-05-14T01:24:15.200Z,10.61
2023-05-14T01:26:44.392Z,10.58
2023-05-14T01:29:23.320Z,10.57
2023-05-14T01:31:54.616Z,10.54
2023-05-14T01:34:24.944Z,10.52
2023-05-14T01:36:54.413Z,10.48
2023-05-14T01:39:24.102Z,10.43
2023-05-14T01:41:53.727Z,10.38
2023-05-14T01:44:23.083Z,10.36
2023-05-14T01:46:51.891Z,10.33
2023-05-14T01:49:22.557Z,10.31
2023-05-14T01:51:51.649Z,10.31
2023-05-14T01:54:21.171Z,10.31
2023-05-14T01:56:49.983Z,10.31
2023-05-14T01:59:19.121Z,10.32
2023-05-14T02:01:48.083Z,10.31
2023-05-14T02:04:17.734Z,10.31
2023-05-14T02:06:46.753Z,10.30
2023-05-14T02:09:17.357Z,10.30
2023-05-14T02:11:46.721Z,10.29
2023-05-14T02:14:16.305Z,10.30
2023-05-14T02:16:45.139Z,10.31
2023-05-14T02:19:14.055Z,10.28
2023-05-14T02:21:44.671Z,10.26
2023-05-14T02:24:16.963Z,10.23
2023-05-14T02:26:47.520Z,10.20
2023-05-14T02:29:20.762Z,10.17
2023-05-14T02:31:50.034Z,10.15
2023-05-14T02:34:19.010Z,10.10
2023-05-14T02:36:49.813Z,10.09
2023-05-14T02:39:19.681Z,10.08
2023-05-14T02:41:48.401Z,10.07
2023-05-14T02:44:19.074Z,10.04
2023-05-14T02:46:49.056Z,10.04
2023-05-14T02:49:19.243Z,10.05
2023-05-14T02:51:48.104Z,10.07
2023-05-14T02:54:17.117Z,10.09
2023-05-14T02:56:47.571Z,10.11
2023-05-14T02:59:16.649Z,10.09
2023-05-14T03:01:46.984Z,10.09
2023-05-14T03:04:16.328Z,10.10
2023-05-14T03:06:45.172Z,10.12
2023-05-14T03:09:14.634Z,10.13
2023-05-14T03:11:43.425Z,10.12
2023-05-14T03:14:12.247Z,10.12
2023-05-14T03:16:42.679Z,10.12
2023-05-14T03:19:11.738Z,10.11
2023-05-14T03:21:40.730Z,10.11
2023-05-14T03:24:09.844Z,10.12
2023-05-14T03:26:42.137Z,10.13
2023-05-14T03:29:11.990Z,10.15
2023-05-14T03:31:42.348Z,10.15
2023-05-14T03:34:11.776Z,10.18
2023-05-14T03:36:42.001Z,10.22
2023-05-14T03:39:10.842Z,10.26
2023-05-14T03:41:40.178Z,10.31
2023-05-14T03:44:10.085Z,10.36
2023-05-14T03:46:39.452Z,10.42
2023-05-14T03:49:10.044Z,10.48
2023-05-14T03:51:38.874Z,10.52
2023-05-14T03:54:08.484Z,10.59
2023-05-14T03:56:37.316Z,10.68
2023-05-14T03:59:07.913Z,10.75
2023-05-14T04:01:36.597Z,10.83
2023-05-14T04:04:05.582Z,10.94
2023-05-14T04:06:34.330Z,11.04
2023-05-14T04:09:04.803Z,11.15
2023-05-14T04:11:33.666Z,11.25
2023-05-14T04:14:03.783Z,11.36
2023-05-14T04:16:32.817Z,11.47
2023-05-14T04:19:07.660Z,11.60
2023-05-14T04:21:36.715Z,11.72
2023-05-14T04:24:09.284Z,11.83
2023-05-14T04:26:39.701Z,11.93
2023-05-14T04:29:08.552Z,12.05
2023-05-14T04:31:38.233Z,12.19
2023-05-14T04:34:08.258Z,12.32
2023-05-14T04:36:36.932Z,12.45
2023-05-14T04:39:06.346Z,12.60
2023-05-14T04:41:35.920Z,12.74
2023-05-14T04:44:05.208Z,12.86
2023-05-14T04:46:33.968Z,13.00
2023-05-14T04:49:03.555Z,13.11
2023-05-14T04:51:33.627Z,13.22
2023-05-14T04:54:02.341Z,13.36
2023-05-14T04:56:31.120Z,13.51
2023-05-14T04:58:59.820Z,13.66
2023-05-14T05:01:30.460Z,13.81
2023-05-14T05:04:01.262Z,13.94
2023-05-14T05:06:31.003Z,14.11
2023-05-14T05:09:02.221Z,14.27
2023-05-14T05:11:31.225Z,14.41
2023-05-14T05:14:00.661Z,14.56
2023-05-14T05:16:30.568Z,14.71
2023-05-14T05:18:59.925Z,14.84
2023-05-14T05:21:29.545Z,14.97
2023-05-14T05:23:59.379Z,15.12
2023-05-14T05:26:29.130Z,15.25
2023-05-14T05:29:00.376Z,15.41
2023-05-14T05:31:29.798Z,15.58
2023-05-14T05:34:00.701Z,15.74
2023-05-14T05:36:31.596Z,15.88
2023-05-14T05:39:02.273Z,16.02
2023-05-14T05:41:31.938Z,16.17
2023-05-14T05:44:01.836Z,16.35
2023-05-14T05:46:30.839Z,16.52
2023-05-14T05:49:01.555Z,16.68
2023-05-14T05:51:30.620Z,16.84
2023-05-14T05:54:00.728Z,16.98
2023-05-14T05:56:29.601Z,17.11
2023-05-14T05:58:58.438Z,17.24
2023-05-14T06:01:29.801Z,17.40
2023-05-14T06:03:59.767Z,17.57
2023-05-14T06:06:29.390Z,17.73
2023-05-14T06:08:58.229Z,17.89
2023-05-14T06:11:27.091Z,18.08
2023-05-14T06:13:55.983Z,18.26
2023-05-14T06:16:24.991Z,18.41
2023-05-14T06:18:55.815Z,18.55
2023-05-14T06:21:24.882Z,18.67
2023-05-14T06:23:54.145Z,18.76
2023-05-14T06:26:25.267Z,18.90
2023-05-14T06:28:55.197Z,19.05
2023-05-14T06:31:25.539Z,19.17
2023-05-14T06:33:54.324Z,19.32
2023-05-14T06:36:23.111Z,19.47
2023-05-14T06:38:52.176Z,19.64
2023-05-14T06:41:21.662Z,19.76
2023-05-14T06:43:51.670Z,19.90
2023-05-14T06:46:21.999Z,19.99
2023-05-14T06:48:51.612Z,20.14
2023-05-14T06:51:21.138Z,20.32
2023-05-14T06:53:54.619Z,20.46
2023-05-14T06:56:27.516Z,20.61
2023-05-14T06:58:56.701Z,20.83
2023-05-14T07:01:33.407Z,21.03
2023-05-14T07:04:02.475Z,21.16
2023-05-14T07:06:33.052Z,21.28
2023-05-14T07:09:02.083Z,21.31
2023-05-14T07:11:31.536Z,21.47
2023-05-14T07:14:02.872Z,21.62
2023-05-14T07:16:33.057Z,21.71
2023-05-14T07:19:02.349Z,21.74
2023-05-14T07:21:32.128Z,21.85
2023-05-14T07:24:01.012Z,21.96
2023-05-14T07:26:33.394Z,22.31
2023-05-14T07:29:51.833Z,23.62
2023-05-14T07:32:25.496Z,26.92
2023-05-14T07:34:56.090Z,28.76
2023-05-14T07:37:26.386Z,30.33
2023-05-14T07:39:55.320Z,31.80
2023-05-14T07:42:35.364Z,32.47
2023-05-14T07:45:09.163Z,33.03
2023-05-14T07:47:38.004Z,33.48
2023-05-14T07:50:08.674Z,34.04
2023-05-14T07:52:37.550Z,34.31
2023-05-14T07:55:10.052Z,34.20
2023-05-14T07:57:40.949Z,34.41
2023-05-14T08:00:11.428Z,34.82
2023-05-14T08:02:43.729Z,35.20
2023-05-14T08:05:14.130Z,35.36
2023-05-14T08:07:45.806Z,35.44
2023-05-14T08:10:14.859Z,35.30
2023-05-14T08:12:46.393Z,34.94
2023-05-14T08:15:15.877Z,34.87
2023-05-14T08:17:49.952Z,35.17
2023-05-14T08:20:19.084Z,35.36
2023-05-14T08:22:48.030Z,35.59
2023-05-14T08:25:18.227Z,35.88
2023-05-14T08:27:48.616Z,35.68
2023-05-14T08:30:19.978Z,35.82
2023-05-14T08:32:51.569Z,36.12
2023-05-14T08:39:01.617Z,36.52
2023-05-14T08:41:34.435Z,36.75
2023-05-14T08:44:13.654Z,36.89
2023-05-14T08:46:42.581Z,36.86
2023-05-14T08:49:30.372Z,36.76
2023-05-14T08:52:00.728Z,36.75
2023-05-14T08:54:32.923Z,37.00
2023-05-14T08:57:02.445Z,36.83
2023-05-14T08:59:31.437Z,36.74
2023-05-14T09:02:06.693Z,36.47
2023-05-14T09:04:38.456Z,36.38
2023-05-14T09:07:09.815Z,36.46
2023-05-14T09:09:42.531Z,36.68
2023-05-14T09:12:11.423Z,36.73
2023-05-14T09:14:41.971Z,36.69
2023-05-14T09:17:13.084Z,36.54
2023-05-14T09:19:42.450Z,36.30
2023-05-14T09:22:15.361Z,35.50
2023-05-14T09:24:44.609Z,34.26
2023-05-14T09:27:21.158Z,33.75
2023-05-14T09:29:50.202Z,33.86
2023-05-14T09:32:19.502Z,33.70
2023-05-14T09:34:48.508Z,32.40
2023-05-14T09:37:18.301Z,31.49
2023-05-14T09:39:48.977Z,30.53
2023-05-14T09:42:17.769Z,30.04
2023-05-14T09:44:47.534Z,29.87
2023-05-14T09:47:17.047Z,29.72
2023-05-14T09:49:48.788Z,29.82
2023-05-14T09:52:20.439Z,29.98
2023-05-14T09:54:51.266Z,30.34
2023-05-14T09:57:20.955Z,30.32
2023-05-14T09:59:52.118Z,30.02
2023-05-14T10:02:25.674Z,29.70
2023-05-14T10:04:55.597Z,29.61
2023-05-14T10:07:27.578Z,28.73
2023-05-14T10:10:03.000Z,27.45
2023-05-14T10:12:34.378Z,27.27
2023-05-14T10:15:13.845Z,27.61
2023-05-14T10:17:46.445Z,27.71
2023-05-14T10:20:17.849Z,27.10
2023-05-14T10:22:48.165Z,26.75
2023-05-14T10:25:20.373Z,26.88
2023-05-14T10:28:00.739Z,26.62
2023-05-14T10:30:30.239Z,26.06
2023-05-14T10:33:09.834Z,26.02
2023-05-14T10:36:12.997Z,26.01
2023-05-14T10:38:44.297Z,26.04
2023-05-14T10:41:18.322Z,26.09
2023-05-14T10:43:50.030Z,25.59
2023-05-14T10:46:18.830Z,25.18
2023-05-14T10:48:52.378Z,25.40
2023-05-14T10:51:26.787Z,25.34
2023-05-14T10:53:55.721Z,25.24
2023-05-14T10:56:26.179Z,25.67
2023-05-14T10:59:01.765Z,26.29
2023-05-14T11:01:32.624Z,26.76
2023-05-14T11:04:03.586Z,26.27
2023-05-14T11:06:32.901Z,25.87
2023-05-14T11:09:03.359Z,25.51
2023-05-14T11:11:32.263Z,25.30
2023-05-14T11:14:03.910Z,25.55
2023-05-14T11:16:36.783Z,25.51
2023-05-14T11:19:09.101Z,25.52
2023-05-14T11:21:39.081Z,26.02
2023-05-14T11:24:08.252Z,26.61
2023-05-14T11:26:37.155Z,26.79
2023-05-14T11:29:07.449Z,26.38
2023-05-14T11:31:45.673Z,25.81
2023-05-14T11:34:14.773Z,25.37
2023-05-14T11:36:43.821Z,24.98
2023-05-14T11:39:21.267Z,24.66
2023-05-14T11:41:51.867Z,24.45
2023-05-14T11:44:21.088Z,24.23
2023-05-14T11:47:00.265Z,24.08
2023-05-14T11:49:30.569Z,23.92
2023-05-14T11:52:00.000Z,23.84
2023-05-14T11:54:30.451Z,23.72
2023-05-14T11:57:02.517Z,23.75
2023-05-14T11:59:35.217Z,23.90
2023-05-14T12:02:07.586Z,24.19
2023-05-14T12:04:37.739Z,24.31
2023-05-14T12:07:08.942Z,24.34
2023-05-14T12:09:45.062Z,24.35
2023-05-14T12:12:16.821Z,24.41
2023-05-14T12:14:47.105Z,24.47
2023-05-14T12:17:17.342Z,24.53
2023-05-14T12:19:50.577Z,24.51
2023-05-14T12:22:22.928Z,24.66
2023-05-14T12:24:55.571Z,25.18
2023-05-14T12:27:27.683Z,25.32
2023-05-14T12:30:19.024Z,25.24
2023-05-14T12:32:52.187Z,25.48
2023-05-14T12:35:22.622Z,25.69
2023-05-14T12:37:52.094Z,26.00
2023-05-14T12:40:23.664Z,26.22
2023-05-14T12:42:55.476Z,26.40
2023-05-14T12:45:25.801Z,26.57
2023-05-14T12:47:59.137Z,26.43
2023-05-14T12:50:29.991Z,26.39
2023-05-14T12:52:58.864Z,26.43
2023-05-14T12:55:31.009Z,26.32
2023-05-14T12:58:01.692Z,26.43
2023-05-14T13:00:30.702Z,26.62
2023-05-14T13:03:01.951Z,26.57
2023-05-14T13:05:31.430Z,26.42
2023-05-14T13:08:04.321Z,26.47
2023-05-14T13:10:38.143Z,26.72
2023-05-14T13:13:12.067Z,26.62
2023-05-14T13:15:41.770Z,26.32
2023-05-14T13:18:10.658Z,26.16
2023-05-14T13:20:43.125Z,26.12
2023-05-14T13:23:12.244Z,25.82
2023-05-14T13:25:42.821Z,25.40
2023-05-14T13:28:11.992Z,25.21
2023-05-14T13:31:08.944Z,24.88
2023-05-14T13:33:41.651Z,24.53
2023-05-14T13:36:12.156Z,24.62
2023-05-14T13:38:41.624Z,24.67
2023-05-14T13:41:13.378Z,24.66
2023-05-14T13:43:42.946Z,24.99
2023-05-14T13:46:13.251Z,25.21
2023-05-14T13:48:44.562Z,24.88
2023-05-14T13:51:13.386Z,24.51
2023-05-14T13:53:46.179Z,24.27
2023-05-14T13:56:16.488Z,24.20
2023-05-14T13:58:46.001Z,24.34
2023-05-14T14:01:14.837Z,24.40
2023-05-14T14:03:45.269Z,24.76
2023-05-14T14:06:15.941Z,25.04
2023-05-14T14:08:45.041Z,25.22
2023-05-14T14:11:15.794Z,25.21
2023-05-14T14:13:46.758Z,25.24
2023-05-14T14:16:17.391Z,25.35
2023-05-14T14:18:47.810Z,25.36
2023-05-14T14:21:18.557Z,25.44
2023-05-14T14:23:49.381Z,25.59
2023-05-14T14:26:20.064Z,25.78
2023-05-14T14:28:50.904Z,25.91
2023-05-14T14:31:51.056Z,26.06
2023-05-14T14:34:19.972Z,26.24
2023-05-14T14:36:49.074Z,26.34
2023-05-14T14:39:18.894Z,26.33
2023-05-14T14:41:49.363Z,26.15
2023-05-14T14:44:19.951Z,26.06
2023-05-14T14:46:51.820Z,25.96
2023-05-14T14:49:22.419Z,25.89
2023-05-14T14:51:53.682Z,25.79
2023-05-14T14:54:23.123Z,25.84
2023-05-14T14:56:55.315Z,25.68
2023-05-14T14:59:25.248Z,25.44
2023-05-14T15:01:55.641Z,25.36
2023-05-14T15:04:26.384Z,25.48
2023-05-14T15:06:55.680Z,25.58
2023-05-14T15:09:25.921Z,25.55
2023-05-14T15:11:55.161Z,25.44
2023-05-14T15:14:24.306Z,25.35
2023-05-14T15:16:54.574Z,25.31
2023-05-14T15:19:23.750Z,25.22
2023-05-14T15:21:53.530Z,25.04
2023-05-14T15:24:24.478Z,24.95
2023-05-14T15:26:55.055Z,24.82
2023-05-14T15:29:28.532Z,24.68
2023-05-14T15:31:59.359Z,24.44
2023-05-14T15:34:30.875Z,24.40
2023-05-14T15:37:06.347Z,24.32
2023-05-14T15:39:38.752Z,24.16
2023-05-14T15:42:09.494Z,23.95
2023-05-14T15:44:38.943Z,23.80
2023-05-14T15:47:08.286Z,23.72
2023-05-14T15:49:39.123Z,23.68
2023-05-14T15:52:08.059Z,23.65
2023-05-14T15:54:37.221Z,23.58
2023-05-14T15:57:06.908Z,23.46
2023-05-14T15:59:35.695Z,23.32
2023-05-14T16:02:05.017Z,23.25
2023-05-14T16:04:35.075Z,23.28
2023-05-14T16:07:09.381Z,23.29
2023-05-14T16:09:39.863Z,23.32
2023-05-14T16:12:09.056Z,23.42
2023-05-14T16:14:39.034Z,23.50
2023-05-14T16:17:09.843Z,23.55
2023-05-14T16:19:43.852Z,23.59
2023-05-14T16:22:12.942Z,23.58
2023-05-14T16:24:42.440Z,23.52
2023-05-14T16:27:12.970Z,23.38
2023-05-14T16:29:43.011Z,23.30
2023-05-14T16:32:16.844Z,23.30
2023-05-14T16:34:50.067Z,23.36
2023-05-14T16:37:23.051Z,23.41
2023-05-14T16:39:53.052Z,23.36
2023-05-14T16:42:23.433Z,23.27
2023-05-14T16:44:52.219Z,23.19
2023-05-14T16:47:22.029Z,23.11
2023-05-14T16:49:51.517Z,23.02
2023-05-14T16:52:22.296Z,22.92
2023-05-14T16:54:51.220Z,22.84
2023-05-14T16:57:21.509Z,22.80
2023-05-14T16:59:51.583Z,22.80
2023-05-14T17:02:21.359Z,22.77
2023-05-14T17:04:51.154Z,22.75
2023-05-14T17:07:20.239Z,22.73
2023-05-14T17:09:51.365Z,22.67
2023-05-14T17:12:21.135Z,22.59
2023-05-14T17:14:50.305Z,22.56
2023-05-14T17:17:20.213Z,22.51
2023-05-14T17:19:50.193Z,22.46
2023-05-14T17:22:20.384Z,22.44
2023-05-14T17:24:52.094Z,22.37
2023-05-14T17:27:22.051Z,22.28
2023-05-14T17:30:42.478Z,22.18
2023-05-14T17:33:12.859Z,22.00
2023-05-14T17:35:44.321Z,21.90
2023-05-14T17:38:20.258Z,21.78
2023-05-14T17:40:49.225Z,21.68
2023-05-14T17:43:19.851Z,21.59
2023-05-14T17:48:22.954Z,21.39
2023-05-14T17:50:52.730Z,21.31
2023-05-14T17:53:23.602Z,21.25
2023-05-14T17:55:52.328Z,21.14
2023-05-14T17:58:24.406Z,21.04
2023-05-14T18:00:54.074Z,20.95
2023-05-14T18:03:26.591Z,20.84
2023-05-14T18:06:06.566Z,20.72
2023-05-14T18:08:36.834Z,20.58
2023-05-14T18:11:06.570Z,20.47
2023-05-14T18:13:37.052Z,20.37
2023-05-14T18:16:07.840Z,20.27
2023-05-14T18:18:37.709Z,20.16
2023-05-14T18:21:07.668Z,20.05
2023-05-14T18:23:38.613Z,19.93
2023-05-14T18:26:09.063Z,19.79
2023-05-14T18:28:38.053Z,19.70
2023-05-14T18:31:10.635Z,19.61
2023-05-14T18:33:44.282Z,19.48
2023-05-14T18:36:14.617Z,19.35
2023-05-14T18:38:46.724Z,19.23
2023-05-14T18:41:17.452Z,19.10
2023-05-14T18:43:47.532Z,18.98
2023-05-14T18:46:18.894Z,18.89
2023-05-14T18:48:48.918Z,18.79
2023-05-14T18:51:19.221Z,18.67
2023-05-14T18:53:49.291Z,18.56
2023-05-14T18:56:19.804Z,18.40
2023-05-14T18:58:50.011Z,18.26
2023-05-14T19:01:24.864Z,18.11
2023-05-14T19:03:56.902Z,17.96
2023-05-14T19:06:37.184Z,17.79
2023-05-14T19:09:15.297Z,17.64
2023-05-14T19:11:46.529Z,17.48
2023-05-14T19:14:15.909Z,17.34
2023-05-14T19:16:46.182Z,17.20
2023-05-14T19:19:18.145Z,17.07
2023-05-14T19:22:49.826Z,16.96
2023-05-14T19:25:16.430Z,16.85
2023-05-14T19:27:48.522Z,16.81
2023-05-14T19:30:26.311Z,16.78
2023-05-14T19:32:57.988Z,16.77
2023-05-14T19:35:28.535Z,16.76
2023-05-14T19:37:58.069Z,16.76
2023-05-14T19:40:30.081Z,16.73
2023-05-14T19:43:00.875Z,16.70
2023-05-14T19:45:40.036Z,16.69
2023-05-14T19:48:09.782Z,16.66
2023-05-14T19:50:39.726Z,16.61
2023-05-14T19:53:09.939Z,16.57
2023-05-14T19:55:40.275Z,16.49
2023-05-14T19:58:09.959Z,16.40
2023-05-14T20:00:40.050Z,16.32
2023-05-14T20:03:10.981Z,16.24
2023-05-14T20:05:42.144Z,16.15
2023-05-14T20:08:13.700Z,16.04
2023-05-14T20:10:44.676Z,15.93
2023-05-14T20:13:13.521Z,15.78
2023-05-14T20:15:43.523Z,15.65
2023-05-14T20:18:13.115Z,15.53
2023-05-14T20:20:43.099Z,15.45
2023-05-14T20:23:16.324Z,15.34
2023-05-14T20:25:45.618Z,15.26
2023-05-14T20:28:15.892Z,15.19
2023-05-14T20:30:49.114Z,15.12
2023-05-14T20:33:18.695Z,15.08
2023-05-14T20:35:49.148Z,15.03
2023-05-14T20:38:19.497Z,15.00
2023-05-14T20:40:50.455Z,14.96
2023-05-14T20:43:20.801Z,14.95
2023-05-14T20:45:52.066Z,14.94
2023-05-14T20:48:21.802Z,14.86
2023-05-14T20:50:51.434Z,14.77
2023-05-14T20:53:23.057Z,14.73
2023-05-14T20:55:52.770Z,14.71
2023-05-14T20:58:22.112Z,14.71
2023-05-14T21:00:51.387Z,14.73
2023-05-14T21:03:22.130Z,14.74
2023-05-14T21:05:52.272Z,14.76
2023-05-14T21:08:21.686Z,14.76
2023-05-14T21:10:50.428Z,14.76
2023-05-14T21:13:19.375Z,14.77
2023-05-14T21:15:48.187Z,14.77
2023-05-14T21:18:17.566Z,14.77
2023-05-14T21:20:46.552Z,14.77
2023-05-14T21:23:16.443Z,14.77
2023-05-14T21:25:47.028Z,14.76
2023-05-14T21:28:16.670Z,14.75
2023-05-14T21:31:37.262Z,14.73
2023-05-14T21:34:07.865Z,14.69
2023-05-14T21:36:38.239Z,14.66
2023-05-14T21:39:09.080Z,14.63
2023-05-14T21:41:39.399Z,14.58
2023-05-14T21:44:10.479Z,14.55
2023-05-14T21:46:39.256Z,14.53
2023-05-14T21:49:08.200Z,14.53
2023-05-14T21:51:38.466Z,14.54
2023-05-14T21:54:07.835Z,14.54
2023-05-14T21:56:37.624Z,14.53
2023-05-14T21:59:06.786Z,14.51
2023-05-14T22:01:50.629Z,14.51
2023-05-14T22:04:24.979Z,14.50
2023-05-14T22:06:53.847Z,14.50
2023-05-14T22:09:24.607Z,14.48
2023-05-14T22:11:55.101Z,14.46
2023-05-14T22:14:23.977Z,14.45
2023-05-14T22:16:52.848Z,14.44
2023-05-14T22:19:23.076Z,14.43
2023-05-14T22:21:51.825Z,14.40
2023-05-14T22:24:23.790Z,14.39
2023-05-14T22:26:52.797Z,14.37
2023-05-14T22:29:24.475Z,14.34
2023-05-14T22:31:53.356Z,14.32
2023-05-14T22:34:22.856Z,14.31
2023-05-14T22:36:53.434Z,14.30
2023-05-14T22:39:22.254Z,14.27
2023-05-14T22:41:55.408Z,14.26
2023-05-14T22:44:27.213Z,14.23
2023-05-14T22:46:57.443Z,14.23
2023-05-14T22:49:27.495Z,14.21
2023-05-14T22:51:57.956Z,14.18
2023-05-14T22:54:26.761Z,14.15
2023-05-14T22:56:55.556Z,14.15
2023-05-14T22:59:25.675Z,14.14
2023-05-14T23:01:55.680Z,14.16
2023-05-14T23:04:26.099Z,14.16
2023-05-14T23:06:55.342Z,14.15
2023-05-14T23:09:24.669Z,14.14
2023-05-14T23:11:53.869Z,14.11
2023-05-14T23:14:24.787Z,14.10
2023-05-14T23:16:53.461Z,14.10
2023-05-14T23:19:24.841Z,14.10
2023-05-14T23:21:53.777Z,14.09
2023-05-14T23:24:24.635Z,14.10
2023-05-14T23:26:53.455Z,14.10
2023-05-14T23:29:23.371Z,14.10
2023-05-14T23:31:52.294Z,14.11
2023-05-14T23:34:22.905Z,14.10
2023-05-14T23:36:52.435Z,14.11
2023-05-14T23:39:22.051Z,14.10
2023-05-14T23:41:50.888Z,14.11
2023-05-14T23:44:20.148Z,14.12
2023-05-14T23:46:50.289Z,14.14
2023-05-14T23:49:22.208Z,14.14
2023-05-14T23:51:51.357Z,14.16
2023-05-14T23:54:21.751Z,14.18
2023-05-14T23:56:52.681Z,14.19
2023-05-14T23:59:21.888Z,14.21
